Muriedas, Spain
Current Conditions -  °F | °C
As of 10:00 PM on Tuesday 21 Oct 2014 (Local Time) from LEXJ Reporting Station
Overcast Overcast  
Wind Chill: 64°   Ceiling: 3600
Heat Index: 64°   Visibility: 6mi
Dew Point: 61°   Wind: 6mph
Humidity: 88%   Direction: 210°SSW
Pressure: 30.42"   Gusts: NA
Location:  43.43°N, 3.86°W
Report Text: LEXJ 212000Z 21005KT 9999 SCT025 OVC036 18/16 Q1030
Loading
Personal Weather Stations






























Interactive Weather Map
Tropical Storm Tracking
New forecast layout! Learn more

10-Day Weather Forecast

Advertisements
Track Severe Weather on mobile